sensor_id;sensor_type;location;lat;lon;timestamp;P1;durP1;ratioP1;P2;durP2;ratioP2
24233;SDS011;12365;43.554;1.388;2024-02-21T00:01:16;16.65;;;9.95;;
24233;SDS011;12365;43.554;1.388;2024-02-21T00:03:42;17.40;;;9.73;;
24233;SDS011;12365;43.554;1.388;2024-02-21T00:06:08;18.15;;;9.63;;
24233;SDS011;12365;43.554;1.388;2024-02-21T00:08:33;26.88;;;14.35;;
24233;SDS011;12365;43.554;1.388;2024-02-21T00:10:58;16.52;;;10.50;;
24233;SDS011;12365;43.554;1.388;2024-02-21T00:13:25;20.48;;;10.30;;
24233;SDS011;12365;43.554;1.388;2024-02-21T00:15:50;23.25;;;12.35;;
24233;SDS011;12365;43.554;1.388;2024-02-21T00:18:15;26.25;;;13.30;;
24233;SDS011;12365;43.554;1.388;2024-02-21T00:20:41;23.00;;;12.48;;
24233;SDS011;12365;43.554;1.388;2024-02-21T00:23:06;24.48;;;13.32;;
24233;SDS011;12365;43.554;1.388;2024-02-21T00:25:32;21.73;;;12.98;;
24233;SDS011;12365;43.554;1.388;2024-02-21T00:27:57;24.83;;;13.75;;
24233;SDS011;12365;43.554;1.388;2024-02-21T00:30:22;22.88;;;12.85;;
24233;SDS011;12365;43.554;1.388;2024-02-21T00:32:48;24.63;;;13.15;;
24233;SDS011;12365;43.554;1.388;2024-02-21T00:35:13;22.80;;;12.35;;
24233;SDS011;12365;43.554;1.388;2024-02-21T00:37:39;20.85;;;12.65;;
24233;SDS011;12365;43.554;1.388;2024-02-21T00:40:05;18.63;;;11.07;;
24233;SDS011;12365;43.554;1.388;2024-02-21T00:42:31;19.88;;;10.65;;
24233;SDS011;12365;43.554;1.388;2024-02-21T00:44:56;18.23;;;9.98;;
24233;SDS011;12365;43.554;1.388;2024-02-21T00:47:21;14.75;;;9.63;;
24233;SDS011;12365;43.554;1.388;2024-02-21T00:49:47;15.52;;;8.82;;
24233;SDS011;12365;43.554;1.388;2024-02-21T00:52:12;14.32;;;8.68;;
24233;SDS011;12365;43.554;1.388;2024-02-21T00:54:37;14.30;;;8.40;;
24233;SDS011;12365;43.554;1.388;2024-02-21T00:57:03;15.48;;;8.45;;
24233;SDS011;12365;43.554;1.388;2024-02-21T00:59:28;13.57;;;7.10;;
24233;SDS011;12365;43.554;1.388;2024-02-21T01:01:54;12.07;;;6.97;;
24233;SDS011;12365;43.554;1.388;2024-02-21T01:04:19;13.93;;;6.75;;
24233;SDS011;12365;43.554;1.388;2024-02-21T01:06:44;13.82;;;7.18;;
24233;SDS011;12365;43.554;1.388;2024-02-21T01:09:13;11.93;;;6.88;;
24233;SDS011;12365;43.554;1.388;2024-02-21T01:11:39;10.88;;;6.80;;
24233;SDS011;12365;43.554;1.388;2024-02-21T01:14:04;14.52;;;7.15;;
24233;SDS011;12365;43.554;1.388;2024-02-21T01:16:29;12.27;;;7.18;;
24233;SDS011;12365;43.554;1.388;2024-02-21T01:18:55;13.75;;;7.35;;
24233;SDS011;12365;43.554;1.388;2024-02-21T01:21:20;12.25;;;7.07;;
24233;SDS011;12365;43.554;1.388;2024-02-21T01:23:46;14.80;;;7.40;;
24233;SDS011;12365;43.554;1.388;2024-02-21T01:26:11;12.90;;;7.40;;
24233;SDS011;12365;43.554;1.388;2024-02-21T01:28:40;10.90;;;6.40;;
24233;SDS011;12365;43.554;1.388;2024-02-21T01:31:06;13.38;;;7.03;;
24233;SDS011;12365;43.554;1.388;2024-02-21T01:33:32;10.48;;;6.30;;
24233;SDS011;12365;43.554;1.388;2024-02-21T01:36:02;11.23;;;6.28;;
24233;SDS011;12365;43.554;1.388;2024-02-21T01:38:29;11.88;;;6.35;;
24233;SDS011;12365;43.554;1.388;2024-02-21T01:40:54;16.20;;;6.13;;
24233;SDS011;12365;43.554;1.388;2024-02-21T01:43:22;11.27;;;5.90;;
24233;SDS011;12365;43.554;1.388;2024-02-21T01:45:52;13.20;;;5.90;;
24233;SDS011;12365;43.554;1.388;2024-02-21T01:48:19;12.23;;;5.97;;
24233;SDS011;12365;43.554;1.388;2024-02-21T01:50:45;13.13;;;5.70;;
24233;SDS011;12365;43.554;1.388;2024-02-21T01:53:12;8.43;;;5.05;;
24233;SDS011;12365;43.554;1.388;2024-02-21T01:55:44;10.68;;;5.45;;
24233;SDS011;12365;43.554;1.388;2024-02-21T01:58:11;20.05;;;5.18;;
24233;SDS011;12365;43.554;1.388;2024-02-21T02:00:38;12.32;;;5.22;;
24233;SDS011;12365;43.554;1.388;2024-02-21T02:03:07;10.38;;;5.60;;
24233;SDS011;12365;43.554;1.388;2024-02-21T02:05:35;11.52;;;5.13;;
24233;SDS011;12365;43.554;1.388;2024-02-21T02:08:01;9.43;;;5.03;;
24233;SDS011;12365;43.554;1.388;2024-02-21T02:10:26;8.13;;;4.85;;
24233;SDS011;12365;43.554;1.388;2024-02-21T02:12:51;12.68;;;5.20;;
24233;SDS011;12365;43.554;1.388;2024-02-21T02:15:17;7.85;;;5.00;;
24233;SDS011;12365;43.554;1.388;2024-02-21T02:17:43;12.27;;;5.28;;
24233;SDS011;12365;43.554;1.388;2024-02-21T02:20:08;10.50;;;4.93;;
24233;SDS011;12365;43.554;1.388;2024-02-21T02:22:34;7.95;;;4.65;;
24233;SDS011;12365;43.554;1.388;2024-02-21T02:25:02;8.70;;;4.68;;
24233;SDS011;12365;43.554;1.388;2024-02-21T02:27:28;9.10;;;4.80;;
24233;SDS011;12365;43.554;1.388;2024-02-21T02:29:54;8.15;;;4.43;;
24233;SDS011;12365;43.554;1.388;2024-02-21T02:32:19;8.35;;;4.70;;
24233;SDS011;12365;43.554;1.388;2024-02-21T02:34:45;9.50;;;4.93;;
24233;SDS011;12365;43.554;1.388;2024-02-21T02:37:10;8.25;;;4.25;;
24233;SDS011;12365;43.554;1.388;2024-02-21T02:39:35;11.23;;;4.82;;
24233;SDS011;12365;43.554;1.388;2024-02-21T02:42:01;8.38;;;4.60;;
24233;SDS011;12365;43.554;1.388;2024-02-21T02:44:27;8.68;;;4.60;;
24233;SDS011;12365;43.554;1.388;2024-02-21T02:46:52;12.32;;;4.78;;
24233;SDS011;12365;43.554;1.388;2024-02-21T02:49:18;9.35;;;4.40;;
24233;SDS011;12365;43.554;1.388;2024-02-21T02:51:43;9.57;;;4.10;;
24233;SDS011;12365;43.554;1.388;2024-02-21T02:54:09;7.13;;;4.28;;
24233;SDS011;12365;43.554;1.388;2024-02-21T02:56:34;7.47;;;4.40;;
24233;SDS011;12365;43.554;1.388;2024-02-21T02:59:00;9.05;;;4.40;;
24233;SDS011;12365;43.554;1.388;2024-02-21T03:01:25;8.88;;;4.60;;
24233;SDS011;12365;43.554;1.388;2024-02-21T03:03:51;11.00;;;4.88;;
24233;SDS011;12365;43.554;1.388;2024-02-21T03:06:16;7.90;;;4.47;;
24233;SDS011;12365;43.554;1.388;2024-02-21T03:08:42;7.20;;;4.70;;
24233;SDS011;12365;43.554;1.388;2024-02-21T03:11:07;7.78;;;4.57;;
24233;SDS011;12365;43.554;1.388;2024-02-21T03:13:33;10.30;;;5.03;;
24233;SDS011;12365;43.554;1.388;2024-02-21T03:15:59;7.93;;;4.70;;
24233;SDS011;12365;43.554;1.388;2024-02-21T03:18:24;9.02;;;4.55;;
24233;SDS011;12365;43.554;1.388;2024-02-21T03:20:49;10.25;;;5.15;;
24233;SDS011;12365;43.554;1.388;2024-02-21T03:23:15;9.35;;;5.22;;
24233;SDS011;12365;43.554;1.388;2024-02-21T03:25:40;7.97;;;4.65;;
24233;SDS011;12365;43.554;1.388;2024-02-21T03:28:06;11.40;;;5.40;;
24233;SDS011;12365;43.554;1.388;2024-02-21T03:30:31;10.25;;;4.57;;
24233;SDS011;12365;43.554;1.388;2024-02-21T03:32:58;8.95;;;5.20;;
24233;SDS011;12365;43.554;1.388;2024-02-21T03:35:24;9.70;;;4.80;;
24233;SDS011;12365;43.554;1.388;2024-02-21T03:37:51;12.70;;;5.25;;
24233;SDS011;12365;43.554;1.388;2024-02-21T03:40:17;10.95;;;4.60;;
24233;SDS011;12365;43.554;1.388;2024-02-21T03:42:42;7.82;;;4.68;;
24233;SDS011;12365;43.554;1.388;2024-02-21T03:45:08;11.27;;;4.90;;
24233;SDS011;12365;43.554;1.388;2024-02-21T03:47:34;9.15;;;5.10;;
24233;SDS011;12365;43.554;1.388;2024-02-21T03:49:59;17.10;;;4.60;;
24233;SDS011;12365;43.554;1.388;2024-02-21T03:52:25;10.82;;;4.80;;
24233;SDS011;12365;43.554;1.388;2024-02-21T03:54:50;8.38;;;4.82;;
24233;SDS011;12365;43.554;1.388;2024-02-21T03:57:16;12.18;;;5.10;;
24233;SDS011;12365;43.554;1.388;2024-02-21T03:59:42;9.45;;;4.50;;
24233;SDS011;12365;43.554;1.388;2024-02-21T04:02:07;10.13;;;4.85;;
24233;SDS011;12365;43.554;1.388;2024-02-21T04:04:34;7.75;;;4.30;;
24233;SDS011;12365;43.554;1.388;2024-02-21T04:07:02;7.85;;;4.50;;
24233;SDS011;12365;43.554;1.388;2024-02-21T04:09:31;10.73;;;4.63;;
24233;SDS011;12365;43.554;1.388;2024-02-21T04:11:58;9.55;;;4.72;;
24233;SDS011;12365;43.554;1.388;2024-02-21T04:14:23;8.07;;;4.78;;
24233;SDS011;12365;43.554;1.388;2024-02-21T04:16:49;8.25;;;4.43;;
24233;SDS011;12365;43.554;1.388;2024-02-21T04:19:14;9.55;;;4.78;;
24233;SDS011;12365;43.554;1.388;2024-02-21T04:21:39;9.38;;;4.70;;
24233;SDS011;12365;43.554;1.388;2024-02-21T04:24:05;8.48;;;4.60;;
24233;SDS011;12365;43.554;1.388;2024-02-21T04:26:30;10.05;;;5.00;;
24233;SDS011;12365;43.554;1.388;2024-02-21T04:28:56;7.53;;;4.40;;
24233;SDS011;12365;43.554;1.388;2024-02-21T04:31:21;9.60;;;4.65;;
24233;SDS011;12365;43.554;1.388;2024-02-21T04:33:46;10.27;;;4.93;;
24233;SDS011;12365;43.554;1.388;2024-02-21T04:36:12;9.60;;;4.28;;
24233;SDS011;12365;43.554;1.388;2024-02-21T04:38:37;7.65;;;5.00;;
24233;SDS011;12365;43.554;1.388;2024-02-21T04:41:04;8.55;;;4.57;;
24233;SDS011;12365;43.554;1.388;2024-02-21T04:43:29;10.68;;;4.38;;
24233;SDS011;12365;43.554;1.388;2024-02-21T04:45:54;9.82;;;4.30;;
24233;SDS011;12365;43.554;1.388;2024-02-21T04:48:20;7.85;;;3.97;;
24233;SDS011;12365;43.554;1.388;2024-02-21T04:50:46;9.10;;;4.30;;
24233;SDS011;12365;43.554;1.388;2024-02-21T04:53:11;8.13;;;4.55;;
24233;SDS011;12365;43.554;1.388;2024-02-21T04:55:36;10.82;;;5.13;;
24233;SDS011;12365;43.554;1.388;2024-02-21T04:58:02;10.68;;;5.40;;
24233;SDS011;12365;43.554;1.388;2024-02-21T05:00:27;6.47;;;4.28;;
24233;SDS011;12365;43.554;1.388;2024-02-21T05:02:53;9.40;;;5.00;;
24233;SDS011;12365;43.554;1.388;2024-02-21T05:05:18;16.23;;;4.80;;
24233;SDS011;12365;43.554;1.388;2024-02-21T05:07:43;9.60;;;5.13;;
24233;SDS011;12365;43.554;1.388;2024-02-21T05:10:09;9.27;;;4.75;;
24233;SDS011;12365;43.554;1.388;2024-02-21T05:12:34;8.90;;;4.65;;
24233;SDS011;12365;43.554;1.388;2024-02-21T05:15:00;6.68;;;4.22;;
24233;SDS011;12365;43.554;1.388;2024-02-21T05:17:26;8.95;;;4.25;;
24233;SDS011;12365;43.554;1.388;2024-02-21T05:19:51;9.60;;;4.30;;
24233;SDS011;12365;43.554;1.388;2024-02-21T05:22:17;7.40;;;4.10;;
24233;SDS011;12365;43.554;1.388;2024-02-21T05:24:42;11.05;;;4.57;;
24233;SDS011;12365;43.554;1.388;2024-02-21T05:27:07;7.43;;;4.05;;
24233;SDS011;12365;43.554;1.388;2024-02-21T05:29:33;8.00;;;4.38;;
24233;SDS011;12365;43.554;1.388;2024-02-21T05:31:58;8.95;;;4.22;;
24233;SDS011;12365;43.554;1.388;2024-02-21T05:34:24;7.93;;;3.78;;
24233;SDS011;12365;43.554;1.388;2024-02-21T05:36:50;11.07;;;4.03;;
24233;SDS011;12365;43.554;1.388;2024-02-21T05:39:16;7.95;;;3.80;;
24233;SDS011;12365;43.554;1.388;2024-02-21T05:41:42;11.45;;;4.15;;
24233;SDS011;12365;43.554;1.388;2024-02-21T05:44:08;7.50;;;4.07;;
24233;SDS011;12365;43.554;1.388;2024-02-21T05:46:33;7.97;;;4.22;;
24233;SDS011;12365;43.554;1.388;2024-02-21T05:48:59;8.05;;;4.28;;
24233;SDS011;12365;43.554;1.388;2024-02-21T05:51:24;8.05;;;3.67;;
24233;SDS011;12365;43.554;1.388;2024-02-21T05:53:49;8.10;;;3.78;;
24233;SDS011;12365;43.554;1.388;2024-02-21T05:56:15;8.95;;;4.30;;
24233;SDS011;12365;43.554;1.388;2024-02-21T05:58:40;5.82;;;3.67;;
24233;SDS011;12365;43.554;1.388;2024-02-21T06:01:06;8.75;;;4.00;;
24233;SDS011;12365;43.554;1.388;2024-02-21T06:03:32;7.55;;;3.63;;
24233;SDS011;12365;43.554;1.388;2024-02-21T06:05:58;10.35;;;3.88;;
24233;SDS011;12365;43.554;1.388;2024-02-21T06:08:23;9.93;;;4.05;;
24233;SDS011;12365;43.554;1.388;2024-02-21T06:10:49;7.68;;;4.00;;
24233;SDS011;12365;43.554;1.388;2024-02-21T06:13:17;9.52;;;3.80;;
24233;SDS011;12365;43.554;1.388;2024-02-21T06:15:42;10.40;;;4.15;;
24233;SDS011;12365;43.554;1.388;2024-02-21T06:18:08;9.98;;;3.97;;
24233;SDS011;12365;43.554;1.388;2024-02-21T06:20:33;6.75;;;3.65;;
24233;SDS011;12365;43.554;1.388;2024-02-21T06:23:01;6.95;;;3.50;;
24233;SDS011;12365;43.554;1.388;2024-02-21T06:25:26;10.50;;;4.15;;
24233;SDS011;12365;43.554;1.388;2024-02-21T06:27:51;9.07;;;3.70;;
24233;SDS011;12365;43.554;1.388;2024-02-21T06:30:17;6.20;;;3.88;;
24233;SDS011;12365;43.554;1.388;2024-02-21T06:32:42;10.05;;;4.75;;
24233;SDS011;12365;43.554;1.388;2024-02-21T06:35:07;10.00;;;4.50;;
24233;SDS011;12365;43.554;1.388;2024-02-21T06:37:33;13.93;;;4.13;;
24233;SDS011;12365;43.554;1.388;2024-02-21T06:39:58;7.20;;;4.10;;
24233;SDS011;12365;43.554;1.388;2024-02-21T06:42:24;6.55;;;3.95;;
24233;SDS011;12365;43.554;1.388;2024-02-21T06:44:50;11.30;;;4.60;;
24233;SDS011;12365;43.554;1.388;2024-02-21T06:47:15;11.75;;;5.60;;
24233;SDS011;12365;43.554;1.388;2024-02-21T06:49:40;10.25;;;5.28;;
24233;SDS011;12365;43.554;1.388;2024-02-21T06:52:07;12.43;;;5.57;;
24233;SDS011;12365;43.554;1.388;2024-02-21T06:54:32;12.15;;;4.78;;
24233;SDS011;12365;43.554;1.388;2024-02-21T06:56:58;14.20;;;5.10;;
24233;SDS011;12365;43.554;1.388;2024-02-21T06:59:23;17.27;;;5.78;;
24233;SDS011;12365;43.554;1.388;2024-02-21T07:01:49;16.35;;;5.20;;
24233;SDS011;12365;43.554;1.388;2024-02-21T07:04:18;26.23;;;5.97;;
24233;SDS011;12365;43.554;1.388;2024-02-21T07:06:44;14.48;;;5.30;;
24233;SDS011;12365;43.554;1.388;2024-02-21T07:09:09;14.98;;;4.97;;
24233;SDS011;12365;43.554;1.388;2024-02-21T07:11:34;12.98;;;5.40;;
24233;SDS011;12365;43.554;1.388;2024-02-21T07:14:00;10.68;;;4.80;;
24233;SDS011;12365;43.554;1.388;2024-02-21T07:16:25;13.98;;;4.63;;
24233;SDS011;12365;43.554;1.388;2024-02-21T07:18:51;10.38;;;4.57;;
24233;SDS011;12365;43.554;1.388;2024-02-21T07:21:17;10.82;;;4.75;;
24233;SDS011;12365;43.554;1.388;2024-02-21T07:23:42;12.23;;;5.00;;
24233;SDS011;12365;43.554;1.388;2024-02-21T07:26:07;14.45;;;5.20;;
24233;SDS011;12365;43.554;1.388;2024-02-21T07:28:33;12.80;;;5.68;;
24233;SDS011;12365;43.554;1.388;2024-02-21T07:30:59;14.27;;;5.10;;
24233;SDS011;12365;43.554;1.388;2024-02-21T07:33:25;19.48;;;5.30;;
24233;SDS011;12365;43.554;1.388;2024-02-21T07:35:50;14.38;;;4.80;;
24233;SDS011;12365;43.554;1.388;2024-02-21T07:38:16;8.65;;;4.22;;
24233;SDS011;12365;43.554;1.388;2024-02-21T07:40:44;7.43;;;4.13;;
24233;SDS011;12365;43.554;1.388;2024-02-21T07:43:10;11.00;;;4.60;;
24233;SDS011;12365;43.554;1.388;2024-02-21T07:45:35;10.60;;;5.40;;
24233;SDS011;12365;43.554;1.388;2024-02-21T07:48:01;9.70;;;4.75;;
24233;SDS011;12365;43.554;1.388;2024-02-21T07:50:27;12.77;;;4.90;;
24233;SDS011;12365;43.554;1.388;2024-02-21T07:52:52;10.85;;;4.70;;
24233;SDS011;12365;43.554;1.388;2024-02-21T07:55:18;15.82;;;5.78;;
24233;SDS011;12365;43.554;1.388;2024-02-21T07:57:43;13.60;;;4.68;;
24233;SDS011;12365;43.554;1.388;2024-02-21T08:00:08;7.63;;;4.50;;
24233;SDS011;12365;43.554;1.388;2024-02-21T08:02:38;10.02;;;4.70;;
24233;SDS011;12365;43.554;1.388;2024-02-21T08:05:04;11.85;;;6.93;;
24233;SDS011;12365;43.554;1.388;2024-02-21T08:07:29;9.05;;;5.13;;
24233;SDS011;12365;43.554;1.388;2024-02-21T08:09:55;10.02;;;5.90;;
24233;SDS011;12365;43.554;1.388;2024-02-21T08:12:21;10.57;;;5.00;;
24233;SDS011;12365;43.554;1.388;2024-02-21T08:14:46;11.27;;;4.95;;
24233;SDS011;12365;43.554;1.388;2024-02-21T08:17:12;10.00;;;4.10;;
24233;SDS011;12365;43.554;1.388;2024-02-21T08:19:37;9.55;;;3.90;;
24233;SDS011;12365;43.554;1.388;2024-02-21T08:22:02;10.50;;;4.03;;
24233;SDS011;12365;43.554;1.388;2024-02-21T08:24:28;11.90;;;4.13;;
24233;SDS011;12365;43.554;1.388;2024-02-21T08:26:53;8.50;;;4.15;;
24233;SDS011;12365;43.554;1.388;2024-02-21T08:29:19;8.63;;;4.05;;
24233;SDS011;12365;43.554;1.388;2024-02-21T08:31:44;14.20;;;4.32;;
24233;SDS011;12365;43.554;1.388;2024-02-21T08:34:09;10.52;;;4.10;;
24233;SDS011;12365;43.554;1.388;2024-02-21T08:36:35;16.65;;;4.05;;
24233;SDS011;12365;43.554;1.388;2024-02-21T08:39:02;9.52;;;4.30;;
24233;SDS011;12365;43.554;1.388;2024-02-21T08:41:31;10.23;;;4.05;;
24233;SDS011;12365;43.554;1.388;2024-02-21T08:43:57;12.98;;;4.13;;
24233;SDS011;12365;43.554;1.388;2024-02-21T08:46:23;8.70;;;3.88;;
24233;SDS011;12365;43.554;1.388;2024-02-21T08:48:52;10.82;;;3.95;;
24233;SDS011;12365;43.554;1.388;2024-02-21T08:51:20;8.30;;;3.72;;
24233;SDS011;12365;43.554;1.388;2024-02-21T08:53:46;8.90;;;3.72;;
24233;SDS011;12365;43.554;1.388;2024-02-21T08:56:12;9.93;;;3.65;;
24233;SDS011;12365;43.554;1.388;2024-02-21T08:58:41;6.43;;;2.90;;
24233;SDS011;12365;43.554;1.388;2024-02-21T09:01:06;12.48;;;3.28;;
24233;SDS011;12365;43.554;1.388;2024-02-21T09:03:35;7.82;;;3.00;;
24233;SDS011;12365;43.554;1.388;2024-02-21T09:06:02;11.75;;;3.00;;
24233;SDS011;12365;43.554;1.388;2024-02-21T09:08:27;9.02;;;3.25;;
24233;SDS011;12365;43.554;1.388;2024-02-21T09:10:53;7.38;;;2.72;;
24233;SDS011;12365;43.554;1.388;2024-02-21T09:13:18;7.05;;;3.05;;
24233;SDS011;12365;43.554;1.388;2024-02-21T09:15:44;7.18;;;3.13;;
24233;SDS011;12365;43.554;1.388;2024-02-21T09:18:09;10.30;;;3.40;;
24233;SDS011;12365;43.554;1.388;2024-02-21T09:20:35;8.30;;;3.00;;
24233;SDS011;12365;43.554;1.388;2024-02-21T09:23:00;7.30;;;3.03;;
24233;SDS011;12365;43.554;1.388;2024-02-21T09:25:26;4.63;;;2.65;;
24233;SDS011;12365;43.554;1.388;2024-02-21T09:27:53;6.60;;;2.60;;
24233;SDS011;12365;43.554;1.388;2024-02-21T09:30:19;7.28;;;2.45;;
24233;SDS011;12365;43.554;1.388;2024-02-21T09:32:44;5.43;;;2.78;;
24233;SDS011;12365;43.554;1.388;2024-02-21T09:35:09;7.03;;;2.60;;
24233;SDS011;12365;43.554;1.388;2024-02-21T09:37:35;14.15;;;2.65;;
24233;SDS011;12365;43.554;1.388;2024-02-21T09:40:01;6.30;;;2.63;;
24233;SDS011;12365;43.554;1.388;2024-02-21T09:42:47;5.13;;;2.70;;
24233;SDS011;12365;43.554;1.388;2024-02-21T09:47:55;6.97;;;2.28;;
24233;SDS011;12365;43.554;1.388;2024-02-21T09:50:35;9.30;;;2.53;;
24233;SDS011;12365;43.554;1.388;2024-02-21T09:53:03;7.45;;;2.63;;
24233;SDS011;12365;43.554;1.388;2024-02-21T09:55:30;6.55;;;2.30;;
24233;SDS011;12365;43.554;1.388;2024-02-21T09:57:59;7.68;;;2.90;;
24233;SDS011;12365;43.554;1.388;2024-02-21T10:00:26;5.28;;;2.50;;
24233;SDS011;12365;43.554;1.388;2024-02-21T10:02:52;7.45;;;2.33;;
24233;SDS011;12365;43.554;1.388;2024-02-21T10:05:18;7.50;;;2.08;;
24233;SDS011;12365;43.554;1.388;2024-02-21T10:07:44;5.80;;;2.17;;
24233;SDS011;12365;43.554;1.388;2024-02-21T10:10:09;18.00;;;2.58;;
24233;SDS011;12365;43.554;1.388;2024-02-21T10:12:35;6.05;;;2.00;;
24233;SDS011;12365;43.554;1.388;2024-02-21T10:15:04;5.90;;;2.50;;
24233;SDS011;12365;43.554;1.388;2024-02-21T10:17:31;8.47;;;2.10;;
24233;SDS011;12365;43.554;1.388;2024-02-21T10:20:07;5.43;;;2.10;;
24233;SDS011;12365;43.554;1.388;2024-02-21T10:22:35;11.52;;;2.42;;
24233;SDS011;12365;43.554;1.388;2024-02-21T10:25:08;6.78;;;2.08;;
24233;SDS011;12365;43.554;1.388;2024-02-21T10:27:37;10.25;;;2.20;;
24233;SDS011;12365;43.554;1.388;2024-02-21T10:30:04;5.60;;;2.13;;
24233;SDS011;12365;43.554;1.388;2024-02-21T10:32:33;10.38;;;2.05;;
24233;SDS011;12365;43.554;1.388;2024-02-21T10:35:02;4.82;;;1.98;;
24233;SDS011;12365;43.554;1.388;2024-02-21T10:37:31;6.13;;;2.05;;
24233;SDS011;12365;43.554;1.388;2024-02-21T10:39:57;5.65;;;2.00;;
24233;SDS011;12365;43.554;1.388;2024-02-21T10:42:22;9.35;;;2.30;;
24233;SDS011;12365;43.554;1.388;2024-02-21T10:44:50;8.23;;;2.13;;
24233;SDS011;12365;43.554;1.388;2024-02-21T10:47:17;6.15;;;1.70;;
24233;SDS011;12365;43.554;1.388;2024-02-21T10:49:46;7.80;;;1.92;;
24233;SDS011;12365;43.554;1.388;2024-02-21T10:55:33;4.78;;;1.70;;
24233;SDS011;12365;43.554;1.388;2024-02-21T10:58:04;6.80;;;1.98;;
24233;SDS011;12365;43.554;1.388;2024-02-21T11:00:30;6.93;;;2.00;;
24233;SDS011;12365;43.554;1.388;2024-02-21T11:02:56;4.32;;;1.98;;
24233;SDS011;12365;43.554;1.388;2024-02-21T11:05:24;2.83;;;1.60;;
24233;SDS011;12365;43.554;1.388;2024-02-21T11:07:50;5.82;;;2.13;;
24233;SDS011;12365;43.554;1.388;2024-02-21T11:10:23;4.43;;;1.70;;
24233;SDS011;12365;43.554;1.388;2024-02-21T11:12:52;4.60;;;1.85;;
24233;SDS011;12365;43.554;1.388;2024-02-21T11:15:18;5.15;;;1.90;;
24233;SDS011;12365;43.554;1.388;2024-02-21T11:17:53;5.43;;;2.10;;
24233;SDS011;12365;43.554;1.388;2024-02-21T11:20:19;4.63;;;1.83;;
24233;SDS011;12365;43.554;1.388;2024-02-21T11:22:44;7.75;;;1.73;;
24233;SDS011;12365;43.554;1.388;2024-02-21T11:25:10;5.30;;;1.98;;
24233;SDS011;12365;43.554;1.388;2024-02-21T11:27:38;5.80;;;1.98;;
24233;SDS011;12365;43.554;1.388;2024-02-21T11:30:11;8.13;;;2.08;;
24233;SDS011;12365;43.554;1.388;2024-02-21T11:32:37;7.55;;;1.98;;
24233;SDS011;12365;43.554;1.388;2024-02-21T11:35:03;6.53;;;2.10;;
24233;SDS011;12365;43.554;1.388;2024-02-21T11:37:33;4.10;;;1.77;;
24233;SDS011;12365;43.554;1.388;2024-02-21T11:40:01;6.90;;;1.98;;
24233;SDS011;12365;43.554;1.388;2024-02-21T11:42:28;7.88;;;2.13;;
24233;SDS011;12365;43.554;1.388;2024-02-21T11:44:54;4.25;;;1.77;;
24233;SDS011;12365;43.554;1.388;2024-02-21T11:47:24;5.90;;;1.60;;
24233;SDS011;12365;43.554;1.388;2024-02-21T11:49:50;7.55;;;2.35;;
24233;SDS011;12365;43.554;1.388;2024-02-21T11:52:19;9.38;;;1.80;;
24233;SDS011;12365;43.554;1.388;2024-02-21T11:54:49;4.47;;;0.85;;
24233;SDS011;12365;43.554;1.388;2024-02-21T11:57:15;5.05;;;0.90;;
24233;SDS011;12365;43.554;1.388;2024-02-21T11:59:40;2.08;;;0.77;;
24233;SDS011;12365;43.554;1.388;2024-02-21T12:02:06;2.45;;;0.90;;
24233;SDS011;12365;43.554;1.388;2024-02-21T12:04:32;3.05;;;1.00;;
24233;SDS011;12365;43.554;1.388;2024-02-21T12:06:58;1.88;;;0.82;;
24233;SDS011;12365;43.554;1.388;2024-02-21T12:09:24;2.47;;;1.40;;
24233;SDS011;12365;43.554;1.388;2024-02-21T12:12:06;4.40;;;1.90;;
24233;SDS011;12365;43.554;1.388;2024-02-21T12:16:59;2.42;;;1.20;;
24233;SDS011;12365;43.554;1.388;2024-02-21T12:19:25;2.55;;;0.77;;
24233;SDS011;12365;43.554;1.388;2024-02-21T12:21:51;2.55;;;1.20;;
24233;SDS011;12365;43.554;1.388;2024-02-21T12:26:52;2.40;;;1.00;;
24233;SDS011;12365;43.554;1.388;2024-02-21T12:29:19;2.45;;;0.98;;
24233;SDS011;12365;43.554;1.388;2024-02-21T12:31:45;3.28;;;1.40;;
24233;SDS011;12365;43.554;1.388;2024-02-21T12:34:11;3.88;;;1.10;;
24233;SDS011;12365;43.554;1.388;2024-02-21T12:36:40;3.17;;;1.25;;
24233;SDS011;12365;43.554;1.388;2024-02-21T12:39:08;3.97;;;1.15;;
24233;SDS011;12365;43.554;1.388;2024-02-21T12:41:33;2.67;;;0.88;;
24233;SDS011;12365;43.554;1.388;2024-02-21T12:44:00;4.47;;;1.02;;
24233;SDS011;12365;43.554;1.388;2024-02-21T12:46:25;4.47;;;1.00;;
24233;SDS011;12365;43.554;1.388;2024-02-21T12:48:51;2.05;;;1.00;;
24233;SDS011;12365;43.554;1.388;2024-02-21T12:51:16;2.33;;;0.90;;
24233;SDS011;12365;43.554;1.388;2024-02-21T12:53:45;3.90;;;1.00;;
24233;SDS011;12365;43.554;1.388;2024-02-21T12:56:12;2.80;;;1.08;;
24233;SDS011;12365;43.554;1.388;2024-02-21T12:58:37;1.52;;;0.90;;
24233;SDS011;12365;43.554;1.388;2024-02-21T13:01:03;11.30;;;3.92;;
24233;SDS011;12365;43.554;1.388;2024-02-21T13:03:29;7.72;;;4.07;;
24233;SDS011;12365;43.554;1.388;2024-02-21T13:05:55;17.95;;;10.63;;
24233;SDS011;12365;43.554;1.388;2024-02-21T13:08:20;5.78;;;3.42;;
24233;SDS011;12365;43.554;1.388;2024-02-21T13:10:48;5.78;;;2.28;;
24233;SDS011;12365;43.554;1.388;2024-02-21T13:13:14;2.88;;;1.20;;
24233;SDS011;12365;43.554;1.388;2024-02-21T13:15:39;2.85;;;1.52;;
24233;SDS011;12365;43.554;1.388;2024-02-21T13:18:08;7.13;;;3.70;;
24233;SDS011;12365;43.554;1.388;2024-02-21T13:20:33;3.95;;;2.17;;
24233;SDS011;12365;43.554;1.388;2024-02-21T13:22:58;1.85;;;0.75;;
24233;SDS011;12365;43.554;1.388;2024-02-21T13:25:24;10.80;;;7.50;;
24233;SDS011;12365;43.554;1.388;2024-02-21T13:27:49;2.10;;;1.00;;
24233;SDS011;12365;43.554;1.388;2024-02-21T13:30:15;2.50;;;0.88;;
24233;SDS011;12365;43.554;1.388;2024-02-21T13:32:43;5.97;;;1.25;;
24233;SDS011;12365;43.554;1.388;2024-02-21T13:35:11;4.03;;;1.60;;
24233;SDS011;12365;43.554;1.388;2024-02-21T13:37:40;3.65;;;1.35;;
24233;SDS011;12365;43.554;1.388;2024-02-21T13:40:07;3.47;;;0.95;;
24233;SDS011;12365;43.554;1.388;2024-02-21T13:42:39;2.75;;;0.90;;
24233;SDS011;12365;43.554;1.388;2024-02-21T13:45:05;4.65;;;1.73;;
24233;SDS011;12365;43.554;1.388;2024-02-21T13:47:31;3.22;;;0.98;;
24233;SDS011;12365;43.554;1.388;2024-02-21T13:50:01;4.25;;;1.15;;
24233;SDS011;12365;43.554;1.388;2024-02-21T13:52:29;7.95;;;1.40;;
24233;SDS011;12365;43.554;1.388;2024-02-21T13:54:55;7.05;;;2.42;;
24233;SDS011;12365;43.554;1.388;2024-02-21T13:57:20;4.60;;;2.35;;
24233;SDS011;12365;43.554;1.388;2024-02-21T13:59:45;3.08;;;1.05;;
24233;SDS011;12365;43.554;1.388;2024-02-21T14:02:11;4.55;;;1.50;;
24233;SDS011;12365;43.554;1.388;2024-02-21T14:04:37;2.55;;;1.42;;
24233;SDS011;12365;43.554;1.388;2024-02-21T14:07:02;1.95;;;0.98;;
24233;SDS011;12365;43.554;1.388;2024-02-21T14:09:28;3.25;;;1.00;;
24233;SDS011;12365;43.554;1.388;2024-02-21T14:11:58;2.35;;;1.38;;
24233;SDS011;12365;43.554;1.388;2024-02-21T14:14:23;3.55;;;1.35;;
24233;SDS011;12365;43.554;1.388;2024-02-21T14:16:48;2.65;;;1.00;;
24233;SDS011;12365;43.554;1.388;2024-02-21T14:19:14;2.10;;;1.15;;
24233;SDS011;12365;43.554;1.388;2024-02-21T14:21:40;1.80;;;0.85;;
24233;SDS011;12365;43.554;1.388;2024-02-21T14:24:05;4.75;;;0.90;;
24233;SDS011;12365;43.554;1.388;2024-02-21T14:26:31;2.78;;;1.23;;
24233;SDS011;12365;43.554;1.388;2024-02-21T14:28:57;4.18;;;1.10;;
24233;SDS011;12365;43.554;1.388;2024-02-21T14:31:23;2.38;;;0.90;;
24233;SDS011;12365;43.554;1.388;2024-02-21T14:33:49;3.60;;;1.10;;
24233;SDS011;12365;43.554;1.388;2024-02-21T14:36:14;6.18;;;0.90;;
24233;SDS011;12365;43.554;1.388;2024-02-21T14:38:43;2.95;;;1.17;;
24233;SDS011;12365;43.554;1.388;2024-02-21T14:41:12;3.33;;;0.90;;
24233;SDS011;12365;43.554;1.388;2024-02-21T14:43:38;2.75;;;1.00;;
24233;SDS011;12365;43.554;1.388;2024-02-21T14:46:03;3.80;;;1.10;;
24233;SDS011;12365;43.554;1.388;2024-02-21T14:48:30;3.65;;;1.20;;